sensor_id;sensor_type;location;lat;lon;timestamp;P1;durP1;ratioP1;P2;durP2;ratioP2
1591;SDS011;789;51.612;7.510;2023-06-24T00:01:59;11.63;;;10.57;;
1591;SDS011;789;51.612;7.510;2023-06-24T00:04:28;12.00;;;10.90;;
1591;SDS011;789;51.612;7.510;2023-06-24T00:06:54;12.87;;;11.30;;
1591;SDS011;789;51.612;7.510;2023-06-24T00:09:24;12.10;;;11.10;;
1591;SDS011;789;51.612;7.510;2023-06-24T00:11:51;13.30;;;12.10;;
1591;SDS011;789;51.612;7.510;2023-06-24T00:14:17;12.33;;;11.23;;
1591;SDS011;789;51.612;7.510;2023-06-24T00:16:46;12.57;;;11.37;;
1591;SDS011;789;51.612;7.510;2023-06-24T00:19:16;12.60;;;10.53;;
1591;SDS011;789;51.612;7.510;2023-06-24T00:21:45;11.67;;;10.33;;
1591;SDS011;789;51.612;7.510;2023-06-24T00:24:12;11.47;;;10.27;;
1591;SDS011;789;51.612;7.510;2023-06-24T00:26:39;12.17;;;10.97;;
1591;SDS011;789;51.612;7.510;2023-06-24T00:29:05;11.70;;;10.50;;
1591;SDS011;789;51.612;7.510;2023-06-24T00:31:33;11.77;;;10.57;;
1591;SDS011;789;51.612;7.510;2023-06-24T00:33:59;11.37;;;10.47;;
1591;SDS011;789;51.612;7.510;2023-06-24T00:36:26;12.30;;;11.20;;
1591;SDS011;789;51.612;7.510;2023-06-24T00:38:55;12.90;;;11.60;;
1591;SDS011;789;51.612;7.510;2023-06-24T00:41:21;12.53;;;11.33;;
1591;SDS011;789;51.612;7.510;2023-06-24T00:43:48;12.50;;;11.50;;
1591;SDS011;789;51.612;7.510;2023-06-24T00:46:15;14.20;;;12.90;;
1591;SDS011;789;51.612;7.510;2023-06-24T00:48:44;14.50;;;13.00;;
1591;SDS011;789;51.612;7.510;2023-06-24T00:51:11;16.03;;;13.57;;
1591;SDS011;789;51.612;7.510;2023-06-24T00:53:39;14.03;;;12.77;;
1591;SDS011;789;51.612;7.510;2023-06-24T00:56:07;14.57;;;13.07;;
1591;SDS011;789;51.612;7.510;2023-06-24T00:58:33;14.13;;;12.73;;
1591;SDS011;789;51.612;7.510;2023-06-24T01:01:04;19.13;;;12.97;;
1591;SDS011;789;51.612;7.510;2023-06-24T01:03:33;14.67;;;13.10;;
1591;SDS011;789;51.612;7.510;2023-06-24T01:06:03;13.00;;;11.57;;
1591;SDS011;789;51.612;7.510;2023-06-24T01:08:30;11.87;;;10.70;;
1591;SDS011;789;51.612;7.510;2023-06-24T01:10:57;11.37;;;10.27;;
1591;SDS011;789;51.612;7.510;2023-06-24T01:13:25;15.13;;;10.30;;
1591;SDS011;789;51.612;7.510;2023-06-24T01:15:52;12.70;;;10.10;;
1591;SDS011;789;51.612;7.510;2023-06-24T01:18:20;12.03;;;11.03;;
1591;SDS011;789;51.612;7.510;2023-06-24T01:20:52;11.60;;;10.53;;
1591;SDS011;789;51.612;7.510;2023-06-24T01:27:15;10.90;;;9.80;;
1591;SDS011;789;51.612;7.510;2023-06-24T01:29:59;10.93;;;9.83;;
1591;SDS011;789;51.612;7.510;2023-06-24T01:32:43;10.77;;;9.77;;
1591;SDS011;789;51.612;7.510;2023-06-24T01:35:15;11.77;;;10.63;;
1591;SDS011;789;51.612;7.510;2023-06-24T01:37:46;14.20;;;10.33;;
1591;SDS011;789;51.612;7.510;2023-06-24T01:40:18;12.80;;;11.50;;
1591;SDS011;789;51.612;7.510;2023-06-24T01:42:48;14.10;;;12.10;;
1591;SDS011;789;51.612;7.510;2023-06-24T01:45:17;17.83;;;12.13;;
1591;SDS011;789;51.612;7.510;2023-06-24T01:47:49;15.80;;;11.93;;
1591;SDS011;789;51.612;7.510;2023-06-24T01:50:24;17.33;;;12.80;;
1591;SDS011;789;51.612;7.510;2023-06-24T01:52:52;14.63;;;12.40;;
1591;SDS011;789;51.612;7.510;2023-06-24T01:55:21;14.20;;;12.80;;
1591;SDS011;789;51.612;7.510;2023-06-24T01:57:50;13.67;;;12.20;;
1591;SDS011;789;51.612;7.510;2023-06-24T02:00:18;13.93;;;12.57;;
1591;SDS011;789;51.612;7.510;2023-06-24T02:02:49;13.53;;;12.23;;
1591;SDS011;789;51.612;7.510;2023-06-24T02:05:16;13.17;;;11.83;;
1591;SDS011;789;51.612;7.510;2023-06-24T02:07:44;13.07;;;11.77;;
1591;SDS011;789;51.612;7.510;2023-06-24T02:10:12;14.73;;;11.67;;
1591;SDS011;789;51.612;7.510;2023-06-24T02:12:41;12.37;;;11.17;;
1591;SDS011;789;51.612;7.510;2023-06-24T02:15:10;13.87;;;12.50;;
1591;SDS011;789;51.612;7.510;2023-06-24T02:17:37;16.23;;;12.33;;
1591;SDS011;789;51.612;7.510;2023-06-24T02:20:08;13.07;;;11.87;;
1591;SDS011;789;51.612;7.510;2023-06-24T02:22:36;13.40;;;11.83;;
1591;SDS011;789;51.612;7.510;2023-06-24T02:25:05;13.37;;;12.07;;
1591;SDS011;789;51.612;7.510;2023-06-24T02:27:33;18.13;;;12.67;;
1591;SDS011;789;51.612;7.510;2023-06-24T02:30:02;14.47;;;13.07;;
1591;SDS011;789;51.612;7.510;2023-06-24T02:32:30;13.30;;;12.10;;
1591;SDS011;789;51.612;7.510;2023-06-24T02:34:57;13.10;;;11.80;;
1591;SDS011;789;51.612;7.510;2023-06-24T02:37:26;15.43;;;11.90;;
1591;SDS011;789;51.612;7.510;2023-06-24T02:39:52;13.57;;;12.37;;
1591;SDS011;789;51.612;7.510;2023-06-24T02:42:19;14.13;;;11.80;;
1591;SDS011;789;51.612;7.510;2023-06-24T02:44:46;13.23;;;12.03;;
1591;SDS011;789;51.612;7.510;2023-06-24T02:47:16;12.43;;;11.10;;
1591;SDS011;789;51.612;7.510;2023-06-24T02:49:44;14.20;;;12.10;;
1591;SDS011;789;51.612;7.510;2023-06-24T02:52:12;13.13;;;11.70;;
1591;SDS011;789;51.612;7.510;2023-06-24T02:54:41;13.37;;;11.83;;
1591;SDS011;789;51.612;7.510;2023-06-24T02:57:09;12.77;;;11.57;;
1591;SDS011;789;51.612;7.510;2023-06-24T02:59:36;13.63;;;12.23;;
1591;SDS011;789;51.612;7.510;2023-06-24T03:02:03;13.00;;;11.60;;
1591;SDS011;789;51.612;7.510;2023-06-24T03:04:30;12.33;;;11.17;;
1591;SDS011;789;51.612;7.510;2023-06-24T03:06:57;12.27;;;11.03;;
1591;SDS011;789;51.612;7.510;2023-06-24T03:09:26;15.23;;;12.47;;
1591;SDS011;789;51.612;7.510;2023-06-24T03:11:54;14.40;;;11.90;;
1591;SDS011;789;51.612;7.510;2023-06-24T03:14:21;12.87;;;11.73;;
1591;SDS011;789;51.612;7.510;2023-06-24T03:16:48;13.73;;;12.43;;
1591;SDS011;789;51.612;7.510;2023-06-24T03:19:14;12.40;;;11.07;;
1591;SDS011;789;51.612;7.510;2023-06-24T03:21:41;13.03;;;11.63;;
1591;SDS011;789;51.612;7.510;2023-06-24T03:24:08;15.00;;;11.90;;
1591;SDS011;789;51.612;7.510;2023-06-24T03:26:35;14.63;;;13.10;;
1591;SDS011;789;51.612;7.510;2023-06-24T03:29:05;14.53;;;12.30;;
1591;SDS011;789;51.612;7.510;2023-06-24T03:31:33;13.67;;;11.83;;
1591;SDS011;789;51.612;7.510;2023-06-24T03:33:59;13.80;;;11.87;;
1591;SDS011;789;51.612;7.510;2023-06-24T03:36:26;13.33;;;11.93;;
1591;SDS011;789;51.612;7.510;2023-06-24T03:38:53;14.37;;;12.87;;
1591;SDS011;789;51.612;7.510;2023-06-24T03:41:20;14.53;;;11.90;;
1591;SDS011;789;51.612;7.510;2023-06-24T03:43:48;13.60;;;12.30;;
1591;SDS011;789;51.612;7.510;2023-06-24T03:46:16;13.27;;;12.00;;
1591;SDS011;789;51.612;7.510;2023-06-24T03:48:43;12.73;;;11.50;;
1591;SDS011;789;51.612;7.510;2023-06-24T03:51:09;14.03;;;11.33;;
1591;SDS011;789;51.612;7.510;2023-06-24T03:53:36;12.57;;;11.40;;
1591;SDS011;789;51.612;7.510;2023-06-24T03:56:03;14.00;;;12.40;;
1591;SDS011;789;51.612;7.510;2023-06-24T03:58:30;15.40;;;13.77;;
1591;SDS011;789;51.612;7.510;2023-06-24T04:01:01;17.67;;;12.27;;
1591;SDS011;789;51.612;7.510;2023-06-24T04:03:30;13.47;;;12.03;;
1591;SDS011;789;51.612;7.510;2023-06-24T04:06:00;13.43;;;11.50;;
1591;SDS011;789;51.612;7.510;2023-06-24T04:08:27;14.60;;;12.40;;
1591;SDS011;789;51.612;7.510;2023-06-24T04:10:55;14.83;;;12.60;;
1591;SDS011;789;51.612;7.510;2023-06-24T04:13:21;13.20;;;11.90;;
1591;SDS011;789;51.612;7.510;2023-06-24T04:15:48;15.20;;;12.20;;
1591;SDS011;789;51.612;7.510;2023-06-24T04:18:17;16.37;;;12.70;;
1591;SDS011;789;51.612;7.510;2023-06-24T04:20:45;13.60;;;12.07;;
1591;SDS011;789;51.612;7.510;2023-06-24T04:23:12;15.50;;;12.23;;
1591;SDS011;789;51.612;7.510;2023-06-24T04:25:40;13.73;;;12.13;;
1591;SDS011;789;51.612;7.510;2023-06-24T04:28:08;13.20;;;11.90;;
1591;SDS011;789;51.612;7.510;2023-06-24T04:30:34;13.80;;;11.67;;
1591;SDS011;789;51.612;7.510;2023-06-24T04:33:03;12.30;;;11.10;;
1591;SDS011;789;51.612;7.510;2023-06-24T04:35:30;14.53;;;12.00;;
1591;SDS011;789;51.612;7.510;2023-06-24T04:37:58;12.10;;;10.67;;
1591;SDS011;789;51.612;7.510;2023-06-24T04:40:24;12.47;;;10.80;;
1591;SDS011;789;51.612;7.510;2023-06-24T04:42:51;12.57;;;11.27;;
1591;SDS011;789;51.612;7.510;2023-06-24T04:45:18;18.60;;;11.90;;
1591;SDS011;789;51.612;7.510;2023-06-24T04:47:46;13.43;;;12.17;;
1591;SDS011;789;51.612;7.510;2023-06-24T04:50:12;13.47;;;11.90;;
1591;SDS011;789;51.612;7.510;2023-06-24T04:52:39;14.23;;;12.40;;
1591;SDS011;789;51.612;7.510;2023-06-24T04:55:08;13.27;;;11.60;;
1591;SDS011;789;51.612;7.510;2023-06-24T04:57:35;12.47;;;11.10;;
1591;SDS011;789;51.612;7.510;2023-06-24T05:00:02;12.87;;;11.60;;
1591;SDS011;789;51.612;7.510;2023-06-24T05:02:30;13.70;;;12.07;;
1591;SDS011;789;51.612;7.510;2023-06-24T05:04:57;13.47;;;11.60;;
1591;SDS011;789;51.612;7.510;2023-06-24T05:07:24;14.90;;;11.80;;
1591;SDS011;789;51.612;7.510;2023-06-24T05:09:51;13.80;;;12.40;;
1591;SDS011;789;51.612;7.510;2023-06-24T05:12:19;12.40;;;11.17;;
1591;SDS011;789;51.612;7.510;2023-06-24T05:14:49;11.83;;;10.57;;
1591;SDS011;789;51.612;7.510;2023-06-24T05:17:16;12.03;;;10.90;;
1591;SDS011;789;51.612;7.510;2023-06-24T05:19:43;11.50;;;10.30;;
1591;SDS011;789;51.612;7.510;2023-06-24T05:22:10;11.60;;;10.40;;
1591;SDS011;789;51.612;7.510;2023-06-24T05:24:37;14.30;;;10.47;;
1591;SDS011;789;51.612;7.510;2023-06-24T05:27:06;13.97;;;11.40;;
1591;SDS011;789;51.612;7.510;2023-06-24T05:29:37;12.53;;;10.00;;
1591;SDS011;789;51.612;7.510;2023-06-24T05:32:04;14.43;;;10.10;;
1591;SDS011;789;51.612;7.510;2023-06-24T05:34:32;14.33;;;12.87;;
1591;SDS011;789;51.612;7.510;2023-06-24T05:36:59;17.20;;;14.10;;
1591;SDS011;789;51.612;7.510;2023-06-24T05:39:25;15.30;;;13.10;;
1591;SDS011;789;51.612;7.510;2023-06-24T05:41:52;21.07;;;11.70;;
1591;SDS011;789;51.612;7.510;2023-06-24T05:44:19;15.60;;;11.10;;
1591;SDS011;789;51.612;7.510;2023-06-24T05:46:49;13.10;;;11.77;;
1591;SDS011;789;51.612;7.510;2023-06-24T05:49:15;13.00;;;11.67;;
1591;SDS011;789;51.612;7.510;2023-06-24T05:51:42;16.20;;;12.60;;
1591;SDS011;789;51.612;7.510;2023-06-24T05:54:09;14.10;;;11.37;;
1591;SDS011;789;51.612;7.510;2023-06-24T05:56:36;15.33;;;11.67;;
1591;SDS011;789;51.612;7.510;2023-06-24T05:59:03;15.17;;;11.93;;
1591;SDS011;789;51.612;7.510;2023-06-24T06:01:30;14.00;;;10.83;;
1591;SDS011;789;51.612;7.510;2023-06-24T06:03:58;13.97;;;11.70;;
1591;SDS011;789;51.612;7.510;2023-06-24T06:06:25;12.33;;;11.20;;
1591;SDS011;789;51.612;7.510;2023-06-24T06:08:52;16.37;;;11.07;;
1591;SDS011;789;51.612;7.510;2023-06-24T06:11:18;12.63;;;10.43;;
1591;SDS011;789;51.612;7.510;2023-06-24T06:13:45;12.73;;;10.57;;
1591;SDS011;789;51.612;7.510;2023-06-24T06:16:14;14.53;;;11.80;;
1591;SDS011;789;51.612;7.510;2023-06-24T06:18:41;18.80;;;12.30;;
1591;SDS011;789;51.612;7.510;2023-06-24T06:21:09;11.97;;;10.60;;
1591;SDS011;789;51.612;7.510;2023-06-24T06:23:36;12.03;;;10.80;;
1591;SDS011;789;51.612;7.510;2023-06-24T06:26:02;11.50;;;10.40;;
1591;SDS011;789;51.612;7.510;2023-06-24T06:28:29;10.30;;;8.93;;
1591;SDS011;789;51.612;7.510;2023-06-24T06:30:56;11.27;;;9.97;;
1591;SDS011;789;51.612;7.510;2023-06-24T06:33:23;11.13;;;10.13;;
1591;SDS011;789;51.612;7.510;2023-06-24T06:35:49;11.70;;;10.50;;
1591;SDS011;789;51.612;7.510;2023-06-24T06:38:17;10.83;;;9.73;;
1591;SDS011;789;51.612;7.510;2023-06-24T06:40:44;13.73;;;9.80;;
1591;SDS011;789;51.612;7.510;2023-06-24T06:43:11;13.03;;;10.30;;
1591;SDS011;789;51.612;7.510;2023-06-24T06:45:37;12.00;;;10.30;;
1591;SDS011;789;51.612;7.510;2023-06-24T06:48:05;13.10;;;10.43;;
1591;SDS011;789;51.612;7.510;2023-06-24T06:50:32;11.43;;;10.33;;
1591;SDS011;789;51.612;7.510;2023-06-24T06:53:01;15.53;;;10.97;;
1591;SDS011;789;51.612;7.510;2023-06-24T06:55:29;12.60;;;11.00;;
1591;SDS011;789;51.612;7.510;2023-06-24T06:57:56;15.90;;;11.17;;
1591;SDS011;789;51.612;7.510;2023-06-24T07:00:24;17.83;;;10.97;;
1591;SDS011;789;51.612;7.510;2023-06-24T07:02:51;15.50;;;11.67;;
1591;SDS011;789;51.612;7.510;2023-06-24T07:05:18;12.90;;;10.80;;
1591;SDS011;789;51.612;7.510;2023-06-24T07:07:45;11.23;;;10.07;;
1591;SDS011;789;51.612;7.510;2023-06-24T07:10:15;11.40;;;9.67;;
1591;SDS011;789;51.612;7.510;2023-06-24T07:12:43;10.60;;;9.53;;
1591;SDS011;789;51.612;7.510;2023-06-24T07:15:10;11.47;;;9.87;;
1591;SDS011;789;51.612;7.510;2023-06-24T07:17:37;10.17;;;9.20;;
1591;SDS011;789;51.612;7.510;2023-06-24T07:20:04;10.90;;;9.13;;
1591;SDS011;789;51.612;7.510;2023-06-24T07:22:32;11.47;;;9.83;;
1591;SDS011;789;51.612;7.510;2023-06-24T07:24:58;11.57;;;9.33;;
1591;SDS011;789;51.612;7.510;2023-06-24T07:27:25;10.10;;;9.10;;
1591;SDS011;789;51.612;7.510;2023-06-24T07:29:55;9.77;;;8.77;;
1591;SDS011;789;51.612;7.510;2023-06-24T07:32:23;9.07;;;8.17;;
1591;SDS011;789;51.612;7.510;2023-06-24T07:34:56;9.87;;;8.13;;
1591;SDS011;789;51.612;7.510;2023-06-24T07:37:22;9.00;;;8.10;;
1591;SDS011;789;51.612;7.510;2023-06-24T07:39:49;10.00;;;8.87;;
1591;SDS011;789;51.612;7.510;2023-06-24T07:42:16;9.20;;;8.23;;
1591;SDS011;789;51.612;7.510;2023-06-24T07:44:43;12.27;;;8.00;;
1591;SDS011;789;51.612;7.510;2023-06-24T07:47:12;9.20;;;8.30;;
1591;SDS011;789;51.612;7.510;2023-06-24T07:49:43;10.60;;;9.20;;
1591;SDS011;789;51.612;7.510;2023-06-24T07:52:10;10.23;;;9.43;;
1591;SDS011;789;51.612;7.510;2023-06-24T07:54:36;10.33;;;9.33;;
1591;SDS011;789;51.612;7.510;2023-06-24T07:57:03;11.40;;;10.37;;
1591;SDS011;789;51.612;7.510;2023-06-24T07:59:30;11.17;;;10.17;;
1591;SDS011;789;51.612;7.510;2023-06-24T08:01:57;10.83;;;9.70;;
1591;SDS011;789;51.612;7.510;2023-06-24T08:04:30;11.70;;;10.70;;
1591;SDS011;789;51.612;7.510;2023-06-24T08:06:58;10.13;;;9.10;;
1591;SDS011;789;51.612;7.510;2023-06-24T08:09:28;10.17;;;9.37;;
1591;SDS011;789;51.612;7.510;2023-06-24T08:11:57;10.97;;;9.30;;
1591;SDS011;789;51.612;7.510;2023-06-24T08:14:28;10.47;;;9.47;;
1591;SDS011;789;51.612;7.510;2023-06-24T08:16:55;9.80;;;8.80;;
1591;SDS011;789;51.612;7.510;2023-06-24T08:19:22;9.30;;;8.33;;
1591;SDS011;789;51.612;7.510;2023-06-24T08:21:51;9.83;;;8.97;;
1591;SDS011;789;51.612;7.510;2023-06-24T08:24:18;9.60;;;8.67;;
1591;SDS011;789;51.612;7.510;2023-06-24T08:26:45;9.30;;;8.43;;
1591;SDS011;789;51.612;7.510;2023-06-24T08:29:12;9.47;;;8.47;;
1591;SDS011;789;51.612;7.510;2023-06-24T08:31:38;8.20;;;7.50;;
1591;SDS011;789;51.612;7.510;2023-06-24T08:34:07;9.40;;;8.60;;
1591;SDS011;789;51.612;7.510;2023-06-24T08:36:34;9.13;;;8.30;;
1591;SDS011;789;51.612;7.510;2023-06-24T08:39:03;8.93;;;8.13;;
1591;SDS011;789;51.612;7.510;2023-06-24T08:41:30;8.97;;;8.23;;
1591;SDS011;789;51.612;7.510;2023-06-24T08:43:59;12.17;;;8.70;;
1591;SDS011;789;51.612;7.510;2023-06-24T08:46:29;9.37;;;8.57;;
1591;SDS011;789;51.612;7.510;2023-06-24T08:48:59;10.10;;;9.07;;
1591;SDS011;789;51.612;7.510;2023-06-24T08:51:37;11.50;;;10.30;;
1591;SDS011;789;51.612;7.510;2023-06-24T08:54:09;12.17;;;10.90;;
1591;SDS011;789;51.612;7.510;2023-06-24T08:56:36;8.97;;;8.07;;
1591;SDS011;789;51.612;7.510;2023-06-24T08:59:04;11.17;;;10.27;;
1591;SDS011;789;51.612;7.510;2023-06-24T09:01:31;10.47;;;9.50;;
1591;SDS011;789;51.612;7.510;2023-06-24T09:03:58;12.30;;;11.00;;
1591;SDS011;789;51.612;7.510;2023-06-24T09:06:26;12.50;;;11.53;;
1591;SDS011;789;51.612;7.510;2023-06-24T09:08:55;10.27;;;9.40;;
1591;SDS011;789;51.612;7.510;2023-06-24T09:11:24;11.00;;;10.00;;
1591;SDS011;789;51.612;7.510;2023-06-24T09:13:55;10.77;;;9.70;;
1591;SDS011;789;51.612;7.510;2023-06-24T09:16:22;13.47;;;12.07;;
1591;SDS011;789;51.612;7.510;2023-06-24T09:18:50;11.73;;;10.63;;
1591;SDS011;789;51.612;7.510;2023-06-24T09:21:21;11.00;;;10.00;;
1591;SDS011;789;51.612;7.510;2023-06-24T09:23:50;10.13;;;9.27;;
1591;SDS011;789;51.612;7.510;2023-06-24T09:26:18;10.70;;;9.80;;
1591;SDS011;789;51.612;7.510;2023-06-24T09:28:48;9.60;;;8.80;;
1591;SDS011;789;51.612;7.510;2023-06-24T09:31:16;10.87;;;9.77;;
1591;SDS011;789;51.612;7.510;2023-06-24T09:33:44;9.83;;;9.03;;
1591;SDS011;789;51.612;7.510;2023-06-24T09:36:13;9.40;;;8.50;;
1591;SDS011;789;51.612;7.510;2023-06-24T09:38:41;9.43;;;8.53;;
1591;SDS011;789;51.612;7.510;2023-06-24T09:41:09;11.10;;;10.17;;
1591;SDS011;789;51.612;7.510;2023-06-24T09:43:36;10.73;;;9.83;;
1591;SDS011;789;51.612;7.510;2023-06-24T09:46:07;10.70;;;9.60;;
1591;SDS011;789;51.612;7.510;2023-06-24T09:48:34;8.93;;;8.13;;
1591;SDS011;789;51.612;7.510;2023-06-24T09:51:02;11.27;;;10.17;;
1591;SDS011;789;51.612;7.510;2023-06-24T09:53:32;11.80;;;10.70;;
1591;SDS011;789;51.612;7.510;2023-06-24T09:56:01;12.00;;;10.93;;
1591;SDS011;789;51.612;7.510;2023-06-24T09:58:31;11.30;;;10.40;;
1591;SDS011;789;51.612;7.510;2023-06-24T10:00:59;11.30;;;10.13;;
1591;SDS011;789;51.612;7.510;2023-06-24T10:03:31;11.50;;;10.40;;
1591;SDS011;789;51.612;7.510;2023-06-24T10:06:01;11.37;;;10.23;;
1591;SDS011;789;51.612;7.510;2023-06-24T10:08:31;10.83;;;9.70;;
1591;SDS011;789;51.612;7.510;2023-06-24T10:10:58;9.93;;;8.80;;
1591;SDS011;789;51.612;7.510;2023-06-24T10:13:28;9.10;;;8.20;;
1591;SDS011;789;51.612;7.510;2023-06-24T10:15:56;10.13;;;9.33;;
1591;SDS011;789;51.612;7.510;2023-06-24T10:18:34;10.37;;;9.40;;
1591;SDS011;789;51.612;7.510;2023-06-24T10:21:02;9.63;;;8.73;;
1591;SDS011;789;51.612;7.510;2023-06-24T10:23:39;9.90;;;9.00;;
1591;SDS011;789;51.612;7.510;2023-06-24T10:26:07;8.10;;;7.30;;
1591;SDS011;789;51.612;7.510;2023-06-24T10:31:50;10.47;;;9.07;;
1591;SDS011;789;51.612;7.510;2023-06-24T10:34:30;9.60;;;8.90;;
1591;SDS011;789;51.612;7.510;2023-06-24T10:36:59;9.67;;;8.80;;
1591;SDS011;789;51.612;7.510;2023-06-24T10:42:26;8.70;;;7.90;;
1591;SDS011;789;51.612;7.510;2023-06-24T10:45:00;9.47;;;8.57;;
1591;SDS011;789;51.612;7.510;2023-06-24T10:47:28;9.03;;;8.33;;
1591;SDS011;789;51.612;7.510;2023-06-24T10:49:57;8.20;;;7.50;;
1591;SDS011;789;51.612;7.510;2023-06-24T10:52:24;8.40;;;7.60;;
1591;SDS011;789;51.612;7.510;2023-06-24T10:54:51;9.70;;;8.70;;
1591;SDS011;789;51.612;7.510;2023-06-24T10:57:23;8.43;;;7.63;;
1591;SDS011;789;51.612;7.510;2023-06-24T10:59:51;9.07;;;8.20;;
1591;SDS011;789;51.612;7.510;2023-06-24T11:02:19;8.63;;;7.83;;
1591;SDS011;789;51.612;7.510;2023-06-24T11:04:47;8.00;;;7.10;;
1591;SDS011;789;51.612;7.510;2023-06-24T11:07:16;7.00;;;6.50;;
1591;SDS011;789;51.612;7.510;2023-06-24T11:09:48;7.73;;;7.00;;
1591;SDS011;789;51.612;7.510;2023-06-24T11:12:16;6.93;;;6.43;;
1591;SDS011;789;51.612;7.510;2023-06-24T11:14:43;6.87;;;6.20;;
1591;SDS011;789;51.612;7.510;2023-06-24T11:17:10;6.73;;;6.23;;
1591;SDS011;789;51.612;7.510;2023-06-24T11:19:38;7.67;;;6.47;;
1591;SDS011;789;51.612;7.510;2023-06-24T11:22:06;7.60;;;6.90;;
1591;SDS011;789;51.612;7.510;2023-06-24T11:24:34;7.57;;;6.97;;
1591;SDS011;789;51.612;7.510;2023-06-24T11:27:03;5.83;;;5.33;;
1591;SDS011;789;51.612;7.510;2023-06-24T11:29:31;7.27;;;6.37;;
1591;SDS011;789;51.612;7.510;2023-06-24T11:31:58;6.50;;;5.90;;
1591;SDS011;789;51.612;7.510;2023-06-24T11:34:26;6.17;;;5.57;;
1591;SDS011;789;51.612;7.510;2023-06-24T11:36:53;5.63;;;5.13;;
1591;SDS011;789;51.612;7.510;2023-06-24T11:39:20;6.73;;;5.50;;
1591;SDS011;789;51.612;7.510;2023-06-24T11:41:49;5.70;;;5.20;;
1591;SDS011;789;51.612;7.510;2023-06-24T11:44:21;5.87;;;5.13;;
1591;SDS011;789;51.612;7.510;2023-06-24T11:46:50;5.13;;;4.60;;
1591;SDS011;789;51.612;7.510;2023-06-24T11:49:17;5.67;;;4.90;;
1591;SDS011;789;51.612;7.510;2023-06-24T11:51:46;6.87;;;5.40;;
1591;SDS011;789;51.612;7.510;2023-06-24T11:54:14;6.37;;;5.00;;
1591;SDS011;789;51.612;7.510;2023-06-24T11:56:43;5.80;;;4.77;;
1591;SDS011;789;51.612;7.510;2023-06-24T11:59:18;5.23;;;4.80;;
1591;SDS011;789;51.612;7.510;2023-06-24T12:01:52;5.33;;;4.83;;
1591;SDS011;789;51.612;7.510;2023-06-24T12:04:20;5.20;;;4.60;;
1591;SDS011;789;51.612;7.510;2023-06-24T12:06:53;7.00;;;4.60;;
1591;SDS011;789;51.612;7.510;2023-06-24T12:09:19;5.80;;;5.30;;
1591;SDS011;789;51.612;7.510;2023-06-24T12:11:46;5.60;;;4.70;;
1591;SDS011;789;51.612;7.510;2023-06-24T12:14:13;5.10;;;3.97;;
1591;SDS011;789;51.612;7.510;2023-06-24T12:16:44;5.63;;;5.10;;
1591;SDS011;789;51.612;7.510;2023-06-24T12:19:11;5.13;;;4.73;;
1591;SDS011;789;51.612;7.510;2023-06-24T12:21:38;5.23;;;4.83;;
1591;SDS011;789;51.612;7.510;2023-06-24T12:24:05;4.73;;;4.23;;
1591;SDS011;789;51.612;7.510;2023-06-24T12:26:33;5.93;;;4.20;;
1591;SDS011;789;51.612;7.510;2023-06-24T12:29:01;5.13;;;4.37;;
1591;SDS011;789;51.612;7.510;2023-06-24T12:31:33;6.20;;;5.20;;
1591;SDS011;789;51.612;7.510;2023-06-24T12:34:00;4.57;;;4.17;;
1591;SDS011;789;51.612;7.510;2023-06-24T12:36:26;4.43;;;4.03;;
1591;SDS011;789;51.612;7.510;2023-06-24T12:38:53;6.00;;;4.43;;
1591;SDS011;789;51.612;7.510;2023-06-24T12:41:20;4.80;;;4.40;;
1591;SDS011;789;51.612;7.510;2023-06-24T12:43:47;4.90;;;4.50;;
1591;SDS011;789;51.612;7.510;2023-06-24T12:46:13;7.20;;;4.60;;
1591;SDS011;789;51.612;7.510;2023-06-24T12:48:42;5.37;;;4.70;;
1591;SDS011;789;51.612;7.510;2023-06-24T12:51:09;5.07;;;4.57;;
1591;SDS011;789;51.612;7.510;2023-06-24T12:53:36;5.70;;;5.20;;
1591;SDS011;789;51.612;7.510;2023-06-24T12:56:03;5.30;;;4.43;;
1591;SDS011;789;51.612;7.510;2023-06-24T12:58:30;5.30;;;4.70;;
1591;SDS011;789;51.612;7.510;2023-06-24T13:00:56;4.87;;;4.47;;
1591;SDS011;789;51.612;7.510;2023-06-24T13:03:23;4.83;;;4.43;;
1591;SDS011;789;51.612;7.510;2023-06-24T13:05:51;4.87;;;4.47;;
1591;SDS011;789;51.612;7.510;2023-06-24T13:08:18;4.63;;;4.20;;
1591;SDS011;789;51.612;7.510;2023-06-24T13:10:45;5.47;;;4.20;;
1591;SDS011;789;51.612;7.510;2023-06-24T13:13:12;4.50;;;4.10;;
1591;SDS011;789;51.612;7.510;2023-06-24T13:15:41;4.20;;;3.90;;
1591;SDS011;789;51.612;7.510;2023-06-24T13:18:07;4.60;;;4.20;;
1591;SDS011;789;51.612;7.510;2023-06-24T13:20:34;11.10;;;10.00;;
1591;SDS011;789;51.612;7.510;2023-06-24T13:23:03;6.30;;;5.70;;
1591;SDS011;789;51.612;7.510;2023-06-24T13:25:29;4.67;;;4.27;;
1591;SDS011;789;51.612;7.510;2023-06-24T13:27:56;4.30;;;3.50;;
1591;SDS011;789;51.612;7.510;2023-06-24T13:30:23;7.80;;;4.57;;
1591;SDS011;789;51.612;7.510;2023-06-24T13:32:50;4.73;;;4.33;;
1591;SDS011;789;51.612;7.510;2023-06-24T13:35:16;6.80;;;5.07;;
1591;SDS011;789;51.612;7.510;2023-06-24T13:37:43;4.63;;;4.23;;
1591;SDS011;789;51.612;7.510;2023-06-24T13:40:12;4.87;;;4.47;;
1591;SDS011;789;51.612;7.510;2023-06-24T13:42:39;5.77;;;5.00;;
1591;SDS011;789;51.612;7.510;2023-06-24T13:45:06;5.70;;;5.13;;
1591;SDS011;789;51.612;7.510;2023-06-24T13:47:34;8.20;;;5.00;;
1591;SDS011;789;51.612;7.510;2023-06-24T13:50:00;7.33;;;5.20;;
1591;SDS011;789;51.612;7.510;2023-06-24T13:52:27;5.33;;;4.93;;
1591;SDS011;789;51.612;7.510;2023-06-24T13:54:54;5.43;;;4.70;;
1591;SDS011;789;51.612;7.510;2023-06-24T13:57:22;5.57;;;5.07;;
1591;SDS011;789;51.612;7.510;2023-06-24T13:59:49;5.17;;;4.77;;
1591;SDS011;789;51.612;7.510;2023-06-24T14:02:19;5.20;;;4.70;;
1591;SDS011;789;51.612;7.510;2023-06-24T14:04:46;9.03;;;4.90;;
1591;SDS011;789;51.612;7.510;2023-06-24T14:07:13;5.23;;;4.70;;
1591;SDS011;789;51.612;7.510;2023-06-24T14:09:39;7.83;;;6.20;;
1591;SDS011;789;51.612;7.510;2023-06-24T14:12:07;5.83;;;4.60;;
1591;SDS011;789;51.612;7.510;2023-06-24T14:14:36;4.83;;;4.43;;
1591;SDS011;789;51.612;7.510;2023-06-24T14:17:04;5.47;;;4.50;;
1591;SDS011;789;51.612;7.510;2023-06-24T14:19:33;5.77;;;5.20;;
1591;SDS011;789;51.612;7.510;2023-06-24T14:22:00;5.03;;;4.50;;
1591;SDS011;789;51.612;7.510;2023-06-24T14:24:27;4.83;;;4.33;;
1591;SDS011;789;51.612;7.510;2023-06-24T14:26:54;6.60;;;4.80;;
1591;SDS011;789;51.612;7.510;2023-06-24T14:29:21;7.23;;;4.50;;
1591;SDS011;789;51.612;7.510;2023-06-24T14:31:49;5.60;;;5.10;;
1591;SDS011;789;51.612;7.510;2023-06-24T14:34:17;5.87;;;4.90;;
1591;SDS011;789;51.612;7.510;2023-06-24T14:36:43;4.83;;;4.33;;
1591;SDS011;789;51.612;7.510;2023-06-24T14:39:13;5.73;;;5.23;;
1591;SDS011;789;51.612;7.510;2023-06-24T14:41:42;6.33;;;5.17;;
1591;SDS011;789;51.612;7.510;2023-06-24T14:44:09;5.33;;;4.63;;
1591;SDS011;789;51.612;7.510;2023-06-24T14:46:36;5.63;;;5.00;;
1591;SDS011;789;51.612;7.510;2023-06-24T14:49:04;6.23;;;4.60;;
1591;SDS011;789;51.612;7.510;2023-06-24T14:51:31;5.90;;;4.80;;
1591;SDS011;789;51.612;7.510;2023-06-24T14:53:58;4.83;;;4.33;;
1591;SDS011;789;51.612;7.510;2023-06-24T14:56:25;5.33;;;4.67;;
1591;SDS011;789;51.612;7.510;2023-06-24T14:58:51;5.10;;;4.60;;
1591;SDS011;789;51.612;7.510;2023-06-24T15:01:18;5.63;;;5.13;;
1591;SDS011;789;51.612;7.510;2023-06-24T15:03:45;4.83;;;4.43;;
1591;SDS011;789;51.612;7.510;2023-06-24T15:06:14;5.47;;;4.97;;
1591;SDS011;789;51.612;7.510;2023-06-24T15:08:41;4.93;;;4.40;;
1591;SDS011;789;51.612;7.510;2023-06-24T15:11:07;5.10;;;4.57;;
1591;SDS011;789;51.612;7.510;2023-06-24T15:13:34;6.00;;;4.47;;
1591;SDS011;789;51.612;7.510;2023-06-24T15:16:01;4.67;;;4.27;;
1591;SDS011;789;51.612;7.510;2023-06-24T15:18:28;5.03;;;4.40;;
1591;SDS011;789;51.612;7.510;2023-06-24T15:20:55;5.63;;;4.87;;
1591;SDS011;789;51.612;7.510;2023-06-24T15:23:23;5.40;;;4.50;;
1591;SDS011;789;51.612;7.510;2023-06-24T15:25:50;5.60;;;4.90;;
1591;SDS011;789;51.612;7.510;2023-06-24T15:28:17;5.10;;;4.70;;
1591;SDS011;789;51.612;7.510;2023-06-24T15:30:44;6.07;;;5.00;;